Time;durP1;ratioP1;P1;durP2;ratioP2;P2;SDS_P1;SDS_P2;PMS_P1;PMS_P2;Temp;Humidity;BMP_temperature;BMP_pressure;BME280_temperature;BME280_humidity;BME280_pressure;Samples;Min_cycle;Max_cycle;Signal;HPM_P1;HPM_P2
2023/04/08 00:00:10;;;;;;;10.90;5.38;;;;;;;2.20;100.00;100201.06;6273244;28;20056;-76
2023/04/08 00:03:11;;;;;;;8.23;5.43;;;;;;;2.22;100.00;100199.28;6253152;28;20519;-76
2023/04/08 00:06:12;;;;;;;8.35;4.18;;;;;;;2.26;100.00;100200.06;6271110;28;20061;-75
2023/04/08 00:09:13;;;;;;;11.73;5.00;;;;;;;2.25;100.00;100200.97;6270425;28;20591;-75
2023/04/08 00:12:14;;;;;;;6.97;4.47;;;;;;;2.25;100.00;100206.97;6252796;28;20490;-76
2023/04/08 00:15:15;;;;;;;15.85;5.88;;;;;;;2.24;100.00;100202.69;6252581;28;20049;-76
2023/04/08 00:18:16;;;;;;;12.43;5.72;;;;;;;2.25;100.00;100204.38;6270113;28;20049;-76
2023/04/08 00:21:19;;;;;;;6.15;4.88;;;;;;;2.25;100.00;100203.53;6252263;28;20595;-71
2023/04/08 00:24:20;;;;;;;13.38;6.00;;;;;;;2.23;100.00;100206.16;6269030;28;20055;-71
2023/04/08 00:27:20;;;;;;;8.75;5.57;;;;;;;2.23;100.00;100201.00;6269271;28;20045;-71
2023/04/08 00:30:27;;;;;;;11.75;5.82;;;;;;;2.28;100.00;100204.28;6251212;28;20072;-70
2023/04/08 00:33:27;;;;;;;11.52;5.10;;;;;;;2.28;100.00;100206.88;6269165;28;20052;-71
2023/04/08 00:36:28;;;;;;;13.48;5.35;;;;;;;2.28;100.00;100206.03;6251218;28;20041;-76
2023/04/08 00:39:29;;;;;;;10.80;5.13;;;;;;;2.23;100.00;100198.44;6269947;28;20071;-76
2023/04/08 00:42:30;;;;;;;9.23;4.95;;;;;;;2.22;100.00;100200.16;6252474;28;20496;-76
2023/04/08 00:45:32;;;;;;;10.07;5.55;;;;;;;2.24;100.00;100205.25;6269914;28;20057;-76
2023/04/08 00:48:33;;;;;;;12.13;4.68;;;;;;;2.29;100.00;100198.28;6270152;28;20048;-76
2023/04/08 00:51:37;;;;;;;8.82;4.45;;;;;;;2.33;100.00;100207.63;6252320;28;20412;-76
2023/04/08 00:54:37;;;;;;;9.88;4.45;;;;;;;2.20;100.00;100201.06;6251924;28;20479;-76
2023/04/08 00:57:41;;;;;;;9.20;4.95;;;;;;;2.20;100.00;100209.66;6252088;28;20045;-76
2023/04/08 01:01:02;;;;;;;7.25;3.88;;;;;;;2.14;100.00;100207.22;6252957;28;20080;-75
2023/04/08 01:04:13;;;;;;;7.63;4.47;;;;;;;2.14;100.00;100207.22;6269643;28;20049;-70
2023/04/08 01:07:21;;;;;;;8.32;3.88;;;;;;;2.08;100.00;100191.94;6268257;28;20044;-70
2023/04/08 01:10:31;;;;;;;7.95;4.10;;;;;;;2.11;100.00;100201.28;6268388;28;20098;-71
2023/04/08 01:13:36;;;;;;;9.90;5.07;;;;;;;2.08;100.00;100199.66;6267007;28;20527;-71
2023/04/08 01:16:41;;;;;;;12.00;4.60;;;;;;;2.04;100.00;100198.03;6268307;28;20044;-70
2023/04/08 01:19:43;;;;;;;7.60;4.40;;;;;;;2.05;100.00;100206.59;6250238;28;20052;-71
2023/04/08 01:22:59;;;;;;;8.70;4.07;;;;;;;2.04;100.00;100210.91;6267951;28;20060;-70
2023/04/08 01:26:00;;;;;;;9.38;5.10;;;;;;;2.03;100.00;100203.22;6267996;28;20084;-72
2023/04/08 01:29:02;;;;;;;13.32;5.25;;;;;;;2.03;100.00;100204.03;6268177;28;20049;-72
2023/04/08 01:32:06;;;;;;;7.85;4.78;;;;;;;1.99;100.00;100208.41;6250345;28;20045;-71
2023/04/08 01:35:08;;;;;;;6.03;3.95;;;;;;;2.00;100.00;100204.97;6250064;28;20412;-71
2023/04/08 01:38:17;;;;;;;8.63;3.75;;;;;;;2.01;100.00;100205.81;6267827;28;20076;-70
2023/04/08 01:41:20;;;;;;;8.48;3.95;;;;;;;2.11;100.00;100202.13;6267598;28;20053;-71
2023/04/08 01:44:21;;;;;;;;;;;;;;;2.12;100.00;100205.53;6250344;28;20076;-71
2023/04/08 01:47:24;;;;;;;9.15;4.40;;;;;;;1.97;100.00;100199.88;6249833;28;19928;-71
2023/04/08 01:50:26;;;;;;;5.40;3.70;;;;;;;1.96;100.00;100202.50;6267379;28;20075;-70
2023/04/08 01:53:27;;;;;;;6.00;3.95;;;;;;;2.05;100.00;100201.44;6267553;28;20053;-70
2023/04/08 01:56:31;;;;;;;6.28;3.80;;;;;;;2.07;100.00;100199.69;6249803;28;20045;-71
2023/04/08 01:59:35;;;;;;;9.05;4.78;;;;;;;2.08;100.00;100202.22;6249612;28;20053;-70
2023/04/08 02:02:37;;;;;;;8.00;4.10;;;;;;;2.13;100.00;100204.69;6249693;28;20085;-70
2023/04/08 02:05:39;;;;;;;8.48;3.85;;;;;;;2.11;100.00;100198.72;6267351;28;20129;-71
2023/04/08 02:08:40;;;;;;;3.70;2.90;;;;;;;2.10;100.00;100203.03;6267325;28;20140;-71
2023/04/08 02:11:41;;;;;;;5.38;3.67;;;;;;;2.06;100.00;100200.53;6267093;28;20449;-71
2023/04/08 02:14:42;;;;;;;3.33;2.92;;;;;;;2.08;100.00;100209.06;6249378;28;20519;-71
2023/04/08 02:17:53;;;;;;;7.35;3.53;;;;;;;2.11;100.00;100206.44;6249529;28;20049;-71
2023/04/08 02:21:12;;;;;;;4.85;3.70;;;;;;;2.09;100.00;100208.22;6249432;28;20062;-70
2023/04/08 02:24:16;;;;;;;8.68;4.50;;;;;;;2.10;100.00;100205.59;6250178;28;20053;-76
2023/04/08 02:27:18;;;;;;;8.70;4.10;;;;;;;2.12;100.00;100208.13;6254003;28;20420;-76
2023/04/08 02:30:20;;;;;;;5.63;3.75;;;;;;;2.08;100.00;100206.50;6271578;28;20077;-71
2023/04/08 02:33:22;;;;;;;7.38;3.90;;;;;;;1.98;100.00;100199.00;6271281;28;20049;-70
2023/04/08 02:36:25;;;;;;;5.77;3.93;;;;;;;1.98;100.00;100200.75;6271104;28;20416;-70
2023/04/08 02:39:31;;;;;;;4.57;3.25;;;;;;;2.03;100.00;100203.22;6253365;28;20053;-70
2023/04/08 02:42:32;;;;;;;6.75;3.30;;;;;;;1.99;100.00;100205.00;6253350;28;20412;-71
2023/04/08 02:45:41;;;;;;;7.25;3.15;;;;;;;2.00;100.00;100206.72;6270836;28;20141;-70
2023/04/08 02:48:42;;;;;;;4.57;3.08;;;;;;;2.00;100.00;100207.53;6253390;28;20056;-70
2023/04/08 02:51:42;;;;;;;9.88;3.28;;;;;;;1.95;100.00;100205.94;6270848;28;20053;-70
2023/04/08 02:54:43;;;;;;;6.53;3.22;;;;;;;1.88;100.00;100205.25;6270816;28;20049;-70
2023/04/08 02:57:46;;;;;;;4.57;2.95;;;;;;;1.86;100.00;100201.88;6252887;28;20488;-71
2023/04/08 03:00:47;;;;;;;3.83;2.90;;;;;;;1.88;100.00;100207.00;6270581;28;20072;-71
2023/04/08 03:03:48;;;;;;;5.63;3.50;;;;;;;1.88;100.00;100200.09;6253421;28;20487;-71
2023/04/08 03:06:49;;;;;;;4.00;2.38;;;;;;;1.89;100.00;100206.94;6270522;28;20049;-71
2023/04/08 03:09:50;;;;;;;4.97;3.35;;;;;;;1.90;100.00;100212.94;6252631;28;20443;-71
2023/04/08 03:12:51;;;;;;;4.78;2.92;;;;;;;1.89;100.00;100209.50;6252712;28;20078;-71
2023/04/08 03:15:51;;;;;;;5.32;3.13;;;;;;;1.85;100.00;100207.88;6252832;28;20045;-71
2023/04/08 03:18:52;;;;;;;6.25;3.30;;;;;;;1.87;100.00;100205.28;6270294;28;20056;-75
2023/04/08 03:21:53;;;;;;;4.15;2.60;;;;;;;1.85;100.00;100214.75;6270623;28;20508;-75
2023/04/08 03:24:54;;;;;;;3.65;2.47;;;;;;;1.81;100.00;100220.00;6270644;28;20139;-75
2023/04/08 03:27:55;;;;;;;6.18;3.45;;;;;;;1.76;100.00;100218.38;6270865;28;20051;-75
2023/04/08 03:30:56;;;;;;;4.93;3.28;;;;;;;1.80;100.00;100226.00;6253231;28;20049;-75
2023/04/08 03:34:00;;;;;;;4.38;3.17;;;;;;;1.84;100.00;100221.63;6270458;28;20044;-75
2023/04/08 03:37:01;;;;;;;2.85;2.10;;;;;;;1.85;100.00;100218.16;6251985;28;20445;-75
2023/04/08 03:40:02;;;;;;;6.25;3.17;;;;;;;1.89;100.00;100219.78;6253057;28;20049;-75
2023/04/08 03:43:05;;;;;;;5.05;2.90;;;;;;;1.91;100.00;100222.34;6252861;28;20056;-75
2023/04/08 03:46:06;;;;;;;4.18;2.30;;;;;;;1.90;100.00;100221.50;6270257;28;20132;-75
2023/04/08 03:49:07;;;;;;;6.22;3.08;;;;;;;1.91;100.00;100230.91;6252685;28;20056;-76
2023/04/08 03:52:07;;;;;;;5.05;2.90;;;;;;;1.94;100.00;100228.28;6252079;28;20088;-75
2023/04/08 03:55:08;;;;;;;7.78;4.30;;;;;;;1.97;100.00;100230.75;6252602;28;20049;-75
2023/04/08 03:58:09;;;;;;;5.07;2.90;;;;;;;1.95;100.00;100232.53;6270126;28;20091;-75
2023/04/08 04:01:11;;;;;;;10.55;3.92;;;;;;;1.94;100.00;100238.56;6252950;28;20097;-75
2023/04/08 04:04:12;;;;;;;2.80;2.30;;;;;;;2.01;100.00;100247.00;6270031;28;20081;-75
2023/04/08 04:07:13;;;;;;;5.25;3.45;;;;;;;2.06;100.00;100241.72;6252244;28;20045;-75
2023/04/08 04:10:14;;;;;;;4.22;2.78;;;;;;;2.07;100.00;100246.84;6252335;28;20568;-75
2023/04/08 04:13:18;;;;;;;6.68;2.83;;;;;;;2.06;100.00;100255.47;6252577;28;20049;-75
2023/04/08 04:16:19;;;;;;;7.10;3.95;;;;;;;1.98;100.00;100241.94;6270123;28;20045;-75
2023/04/08 04:19:19;;;;;;;8.20;3.72;;;;;;;2.05;100.00;100250.34;6269650;28;20141;-75
2023/04/08 04:22:20;;;;;;;11.70;3.63;;;;;;;1.95;100.00;100253.09;6251985;28;20049;-75
2023/04/08 04:25:21;;;;;;;4.47;3.00;;;;;;;2.01;100.00;100257.28;6251894;28;20053;-76
2023/04/08 04:28:22;;;;;;;4.55;3.13;;;;;;;2.08;100.00;100265.69;6269667;28;20063;-76
2023/04/08 04:31:27;;;;;;;5.28;3.53;;;;;;;2.13;100.00;100266.47;6269287;28;20115;-75
2023/04/08 04:34:27;;;;;;;3.67;2.78;;;;;;;2.07;100.00;100262.28;6269183;28;20052;-76
2023/04/08 04:37:28;;;;;;;7.30;2.83;;;;;;;2.14;100.00;100269.00;6269039;28;20404;-75
2023/04/08 04:40:29;;;;;;;7.03;3.60;;;;;;;2.24;100.00;100281.66;6269036;28;20530;-75
2023/04/08 04:43:30;;;;;;;5.85;3.78;;;;;;;2.25;100.00;100278.22;6251615;28;20102;-75
2023/04/08 04:46:31;;;;;;;6.75;4.30;;;;;;;2.26;100.00;100283.31;6268795;28;20088;-75
2023/04/08 04:49:31;;;;;;;6.15;3.83;;;;;;;2.24;100.00;100284.22;6268779;28;20461;-71
2023/04/08 04:52:35;;;;;;;8.57;4.15;;;;;;;2.27;100.00;100286.75;6251109;28;20053;-71
2023/04/08 04:55:36;;;;;;;7.57;3.72;;;;;;;2.36;100.00;100286.53;6268707;28;20052;-72
2023/04/08 04:58:37;;;;;;;6.70;3.70;;;;;;;2.38;100.00;100292.47;6250990;28;20049;-76
2023/04/08 05:01:39;;;;;;;6.43;4.50;;;;;;;2.40;100.00;100298.44;6251312;28;20575;-76
2023/04/08 05:04:40;;;;;;;9.57;4.30;;;;;;;2.48;100.00;100301.69;6269640;28;20500;-76
2023/04/08 05:07:41;;;;;;;7.03;3.50;;;;;;;2.54;100.00;100300.69;6252358;28;20060;-76
2023/04/08 05:10:45;;;;;;;5.05;3.58;;;;;;;2.56;100.00;100302.34;6253699;28;20091;-76
2023/04/08 05:13:46;;;;;;;7.00;4.15;;;;;;;2.58;100.00;100300.59;6271746;28;20457;-76
2023/04/08 05:16:47;;;;;;;10.70;4.55;;;;;;;2.39;100.00;100307.91;6253855;28;20405;-77
2023/04/08 05:19:47;;;;;;;5.93;4.07;;;;;;;2.65;100.00;100310.75;6254238;28;20127;-77
2023/04/08 05:22:48;;;;;;;6.05;4.15;;;;;;;2.70;100.00;100316.63;6256441;28;20135;-77
2023/04/08 05:25:49;;;;;;;8.30;4.43;;;;;;;2.71;100.00;100316.59;6274153;28;20046;-77
2023/04/08 05:28:50;;;;;;;8.40;4.25;;;;;;;2.73;100.00;100319.97;6255544;28;20077;-77
2023/04/08 05:31:51;;;;;;;6.53;4.43;;;;;;;2.85;100.00;100318.00;6255535;28;20105;-77
2023/04/08 05:34:54;;;;;;;9.82;4.85;;;;;;;2.94;100.00;100328.06;6255435;28;20049;-77
2023/04/08 05:37:55;;;;;;;4.47;3.40;;;;;;;2.98;100.00;100319.34;6255902;28;20049;-78
2023/04/08 05:40:59;;;;;;;6.43;3.80;;;;;;;2.97;100.00;100326.25;6255452;28;20053;-78
2023/04/08 05:44:02;;;;;;;8.15;3.67;;;;;;;3.07;100.00;100329.44;6273805;28;20064;-78
2023/04/08 05:47:03;;;;;;;8.77;4.35;;;;;;;3.22;100.00;100321.31;6273347;28;20049;-78
2023/04/08 05:50:04;;;;;;;7.97;4.13;;;;;;;3.31;100.00;100317.63;6256517;28;20055;-78
2023/04/08 05:53:05;;;;;;;7.35;3.67;;;;;;;3.42;100.00;100327.69;6271518;28;20139;-71
2023/04/08 05:56:06;;;;;;;7.32;4.95;;;;;;;3.53;100.00;100323.06;6253271;28;20529;-78
2023/04/08 05:59:09;;;;;;;7.03;4.38;;;;;;;3.55;100.00;100329.03;6268772;28;20060;-71
2023/04/08 06:02:10;;;;;;;9.27;4.90;;;;;;;3.57;100.00;100331.56;6254447;28;20045;-78
2023/04/08 06:05:11;;;;;;;7.97;4.70;;;;;;;3.73;100.00;100335.41;6255598;28;20071;-78
2023/04/08 06:08:11;;;;;;;12.07;5.68;;;;;;;3.81;100.00;100330.88;6255587;28;20072;-78
2023/04/08 06:11:12;;;;;;;7.43;4.72;;;;;;;3.95;100.00;100334.78;6255708;28;20456;-78
2023/04/08 06:14:13;;;;;;;10.45;4.78;;;;;;;4.16;100.00;100336.75;6275334;28;20045;-78
2023/04/08 06:17:14;;;;;;;9.10;4.60;;;;;;;4.19;100.00;100336.63;6274407;28;20148;-78
2023/04/08 06:20:15;;;;;;;4.45;3.67;;;;;;;4.20;100.00;100340.06;6268296;28;20447;-71
2023/04/08 06:23:18;;;;;;;5.35;3.05;;;;;;;4.20;100.00;100340.94;6254579;28;20489;-78
2023/04/08 06:26:21;;;;;;;4.50;3.60;;;;;;;4.18;100.00;100340.13;6271917;28;20091;-78
2023/04/08 06:29:22;;;;;;;5.10;3.55;;;;;;;4.37;100.00;100332.66;6271615;28;20412;-78
2023/04/08 06:32:23;;;;;;;6.15;4.35;;;;;;;4.32;100.00;100336.25;6250838;28;20052;-72
2023/04/08 06:35:24;;;;;;;4.78;3.33;;;;;;;4.26;100.00;100345.03;6266753;28;20488;-72
2023/04/08 06:38:25;;;;;;;9.82;4.45;;;;;;;4.40;100.00;100348.03;6266943;28;20049;-72
2023/04/08 06:41:26;;;;;;;4.80;3.03;;;;;;;4.41;100.00;100346.34;6266700;28;20056;-72
2023/04/08 06:44:26;;;;;;;5.78;4.50;;;;;;;4.58;100.00;100345.78;6266694;28;20063;-71
2023/04/08 06:47:27;;;;;;;7.00;4.38;;;;;;;4.63;100.00;100346.47;6266701;28;20602;-71
2023/04/08 06:50:28;;;;;;;8.23;4.68;;;;;;;4.44;100.00;100348.81;6249132;28;20053;-71
2023/04/08 06:53:30;;;;;;;4.72;3.35;;;;;;;4.42;100.00;100361.75;6249080;28;20052;-71
2023/04/08 06:56:30;;;;;;;6.20;3.30;;;;;;;4.49;100.00;100359.84;6266634;28;20458;-72
2023/04/08 06:59:31;;;;;;;6.15;3.70;;;;;;;4.66;100.00;100361.06;6248813;28;20048;-71
2023/04/08 07:02:32;;;;;;;5.38;3.22;;;;;;;4.76;100.00;100360.72;6266492;28;20052;-71
2023/04/08 07:05:37;;;;;;;6.63;3.25;;;;;;;4.75;100.00;100360.75;6248932;28;20500;-71
2023/04/08 07:08:38;;;;;;;5.22;3.13;;;;;;;4.85;100.00;100351.81;6266349;28;20098;-71
2023/04/08 07:11:38;;;;;;;6.25;4.20;;;;;;;4.98;100.00;100365.19;6267606;28;20697;-71
2023/04/08 07:14:39;;;;;;;6.22;3.45;;;;;;;4.95;100.00;100362.72;6252653;28;20488;-71
2023/04/08 07:17:40;;;;;;;6.80;3.50;;;;;;;4.93;100.00;100367.94;6252927;28;20049;-71
2023/04/08 07:20:43;;;;;;;5.25;3.25;;;;;;;5.15;100.00;100373.25;6252607;28;20385;-72
2023/04/08 07:23:44;;;;;;;6.28;2.67;;;;;;;4.76;100.00;100368.47;6252892;28;20060;-71
2023/04/08 07:26:46;;;;;;;9.10;4.07;;;;;;;4.98;100.00;100368.63;6270414;28;20060;-71
2023/04/08 07:29:53;;;;;;;8.97;4.03;;;;;;;5.10;100.00;100375.13;6252784;28;20053;-72
2023/04/08 07:32:54;;;;;;;6.93;3.97;;;;;;;5.15;100.00;100375.84;6270265;28;20057;-71
2023/04/08 07:35:55;;;;;;;5.32;3.13;;;;;;;5.37;100.00;100373.34;6269913;28;20626;-71
2023/04/08 07:38:56;;;;;;;6.93;3.22;;;;;;;5.18;100.00;100383.47;6270008;28;20067;-77
2023/04/08 07:41:59;;;;;;;3.70;2.58;;;;;;;5.39;100.00;100388.81;6255806;28;20067;-78
2023/04/08 07:45:00;;;;;;;3.30;2.42;;;;;;;5.36;100.00;100387.19;6273177;28;20061;-77
2023/04/08 07:48:01;;;;;;;4.72;2.75;;;;;;;5.31;100.00;100381.31;6253855;28;20083;-78
2023/04/08 07:51:07;;;;;;;3.35;2.58;;;;;;;5.24;100.00;100387.59;6253311;28;20056;-77
2023/04/08 07:54:10;;;;;;;4.55;2.97;;;;;;;5.18;100.00;100395.56;6253109;28;20053;-77
2023/04/08 07:57:11;;;;;;;3.50;1.92;;;;;;;5.04;100.00;100386.53;6270610;28;20087;-78
2023/04/08 08:00:19;;;;;;;3.65;2.42;;;;;;;5.07;100.00;100380.41;6252957;28;20435;-78
2023/04/08 08:03:22;;;;;;;5.30;3.47;;;;;;;5.15;100.00;100393.94;6271466;28;20049;-78
2023/04/08 08:06:28;;;;;;;13.57;3.67;;;;;;;5.35;100.00;100393.25;6253107;28;20053;-78
2023/04/08 08:09:29;;;;;;;2.70;2.25;;;;;;;5.65;100.00;100391.34;6253499;28;20049;-78
2023/04/08 08:12:30;;;;;;;3.67;2.35;;;;;;;5.62;100.00;100396.66;6270359;28;20045;-72
2023/04/08 08:15:34;;;;;;;2.90;2.17;;;;;;;5.71;100.00;100397.22;6270240;28;20060;-78
2023/04/08 08:18:35;;;;;;;3.60;2.53;;;;;;;5.79;100.00;100390.88;6252833;28;20056;-78
2023/04/08 08:21:36;;;;;;;5.17;1.97;;;;;;;5.78;100.00;100399.53;6252747;28;20056;-78
2023/04/08 08:24:39;;;;;;;4.78;2.35;;;;;;;5.98;100.00;100395.41;6252769;28;20048;-78
2023/04/08 08:27:41;;;;;;;2.58;2.15;;;;;;;6.19;100.00;100404.13;6269623;28;20052;-71
2023/04/08 08:30:42;;;;;;;4.28;2.38;;;;;;;6.34;100.00;100403.59;6251756;28;20101;-78
2023/04/08 08:33:43;;;;;;;2.58;2.22;;;;;;;6.33;100.00;100408.81;6252024;28;20086;-78
2023/04/08 08:36:44;;;;;;;2.50;1.95;;;;;;;6.00;100.00;100401.38;6251810;28;20041;-78
2023/04/08 08:39:47;;;;;;;3.00;2.05;;;;;;;6.21;100.00;100404.94;6269202;28;20460;-78
2023/04/08 08:42:51;;;;;;;3.38;2.17;;;;;;;6.58;100.00;100404.38;6251427;28;20057;-77
2023/04/08 08:45:55;;;;;;;4.85;2.60;;;;;;;6.35;100.00;100409.59;6250914;28;20122;-79
2023/04/08 08:48:56;;;;;;;3.00;2.13;;;;;;;6.35;100.00;100409.59;6251260;28;20056;-78
2023/04/08 08:51:58;;;;;;;3.40;2.37;;;;;;;6.27;100.00;100409.03;6251294;28;20052;-78
2023/04/08 08:55:01;;;;;;;2.85;2.40;;;;;;;6.54;100.00;100410.56;6268683;28;20405;-78
2023/04/08 08:58:02;;;;;;;3.70;2.70;;;;;;;6.56;100.00;100420.91;6268799;28;20048;-78
2023/04/08 09:01:30;;;;;;;3.17;2.38;;;;;;;6.81;97.75;100421.59;6268641;28;20048;-78
2023/04/08 09:04:34;;;;;;;3.25;2.05;;;;;;;6.91;99.24;100422.09;6251052;28;20150;-78
2023/04/08 09:07:36;;;;;;;2.95;2.13;;;;;;;7.40;97.55;100420.09;6268677;28;20060;-78
2023/04/08 09:10:39;;;;;;;5.43;2.75;;;;;;;7.44;99.10;100415.63;6268707;28;20056;-78
2023/04/08 09:13:43;;;;;;;3.50;2.28;;;;;;;7.70;95.91;100426.63;6268788;28;20049;-80
2023/04/08 09:16:44;;;;;;;3.67;2.38;;;;;;;7.61;95.76;100420.94;6269017;28;20049;-78
2023/04/08 09:20:11;;;;;;;3.35;2.22;;;;;;;7.49;96.11;100424.03;6268609;28;20056;-72
2023/04/08 09:23:13;;;;;;;3.20;2.42;;;;;;;7.59;93.81;100425.34;6267994;28;20123;-71
2023/04/08 09:26:15;;;;;;;4.53;2.40;;;;;;;7.52;94.60;100423.94;6267894;28;20051;-71
2023/04/08 09:29:16;;;;;;;3.78;2.50;;;;;;;7.40;93.36;100427.03;6250704;28;20101;-78
2023/04/08 09:32:19;;;;;;;14.02;5.82;;;;;;;7.30;93.86;100423.97;6251356;28;20132;-78
2023/04/08 09:35:20;;;;;;;16.73;10.50;;;;;;;7.60;95.13;100429.66;6250185;28;20049;-78
2023/04/08 09:38:21;;;;;;;4.65;3.50;;;;;;;7.78;92.41;100428.00;6268909;28;20049;-78
2023/04/08 09:41:25;;;;;;;7.43;4.95;;;;;;;8.13;94.04;100432.53;6269193;28;20063;-78
2023/04/08 09:44:30;;;;;;;4.70;2.78;;;;;;;8.56;95.17;100425.41;6269586;28;20061;-78
2023/04/08 09:47:53;;;;;;;4.43;3.05;;;;;;;8.24;84.39;100431.16;6269774;28;20530;-78
2023/04/08 09:50:56;;;;;;;3.70;2.80;;;;;;;8.12;87.32;100428.28;6269904;28;20078;-78
2023/04/08 09:54:05;;;;;;;4.25;2.55;;;;;;;7.64;86.60;100431.19;6252226;28;20515;-78
2023/04/08 09:57:13;;;;;;;3.33;2.30;;;;;;;7.27;88.15;100437.09;6252422;28;20049;-78
2023/04/08 10:00:16;;;;;;;2.15;1.70;;;;;;;7.51;89.61;100424.81;6270901;28;20053;-77
2023/04/08 10:03:47;;;;;;;7.50;3.85;;;;;;;7.69;91.91;100435.34;6253242;28;20256;-78
2023/04/08 10:06:53;;;;;;;2.88;2.38;;;;;;;7.62;89.33;100427.00;6270977;28;20041;-77
2023/04/08 10:09:54;;;;;;;4.15;2.35;;;;;;;7.55;90.00;100428.16;6270829;28;20055;-77
2023/04/08 10:12:55;;;;;;;2.90;2.10;;;;;;;7.33;91.02;100425.59;6268891;28;20072;-78
2023/04/08 10:16:21;;;;;;;4.35;3.20;;;;;;;7.15;93.23;100435.84;6249902;28;20053;-78
2023/04/08 10:19:41;;;;;;;4.45;2.90;;;;;;;7.34;96.20;100441.13;6250128;28;20081;-78
2023/04/08 10:22:48;;;;;;;5.93;3.35;;;;;;;7.32;96.21;100431.72;6268105;28;20494;-78
2023/04/08 10:25:49;;;;;;;4.18;2.63;;;;;;;7.43;96.75;100429.50;6267366;28;20060;-78
2023/04/08 10:28:50;;;;;;;4.57;2.50;;;;;;;7.68;98.11;100431.91;6269169;28;20096;-78
2023/04/08 10:31:51;;;;;;;5.60;2.78;;;;;;;7.97;91.18;100435.84;6253139;28;20045;-78
2023/04/08 10:34:52;;;;;;;2.75;2.00;;;;;;;8.24;93.43;100427.72;6270854;28;20053;-77
2023/04/08 10:37:53;;;;;;;4.00;3.10;;;;;;;8.03;88.28;100424.31;6271320;28;20070;-77
2023/04/08 10:40:58;;;;;;;4.53;2.28;;;;;;;8.21;85.21;100433.03;6270582;28;20052;-77
2023/04/08 10:44:02;;;;;;;3.15;2.25;;;;;;;8.49;82.88;100431.84;6254587;28;20060;-77
2023/04/08 10:47:03;;;;;;;2.20;2.00;;;;;;;9.00;81.67;100431.13;6274799;28;20133;-77
2023/04/08 10:50:15;;;;;;;6.88;3.63;;;;;;;9.51;85.35;100428.59;6256394;28;20057;-77
2023/04/08 10:53:16;;;;;;;7.43;3.78;;;;;;;9.41;79.59;100423.03;6255703;28;20045;-77
2023/04/08 10:56:17;;;;;;;3.55;2.28;;;;;;;9.34;81.07;100423.41;6255144;28;20068;-76
2023/04/08 10:59:30;;;;;;;3.00;2.30;;;;;;;9.60;80.20;100428.16;6271636;28;20049;-77
2023/04/08 11:02:32;;;;;;;2.97;2.10;;;;;;;10.22;78.92;100422.34;6253756;28;20049;-76
2023/04/08 11:05:35;;;;;;;4.40;2.83;;;;;;;10.28;72.18;100420.22;6271766;28;20528;-76
2023/04/08 11:08:37;;;;;;;4.03;3.05;;;;;;;10.37;72.37;100418.09;6254490;28;20113;-76
2023/04/08 11:11:40;;;;;;;5.20;2.72;;;;;;;11.11;77.56;100416.59;6272203;27;20071;-77
2023/04/08 11:14:42;;;;;;;2.67;2.00;;;;;;;11.33;67.94;100418.81;6254412;28;20450;-77
2023/04/08 11:17:43;;;;;;;1.95;1.58;;;;;;;11.18;67.73;100417.91;6254002;28;20129;-76
2023/04/08 11:20:44;;;;;;;2.47;1.98;;;;;;;10.37;67.54;100411.09;6271555;28;20071;-76
2023/04/08 11:23:48;;;;;;;2.42;1.90;;;;;;;10.36;69.82;100403.38;6272044;28;20480;-76
2023/04/08 11:26:49;;;;;;;4.70;2.95;;;;;;;10.53;71.40;100408.50;6253409;28;20401;-76
2023/04/08 11:29:52;;;;;;;14.25;7.38;;;;;;;11.18;71.53;100407.47;6271834;28;20049;-76
2023/04/08 11:32:54;;;;;;;9.20;5.38;;;;;;;11.20;72.61;100408.22;6271634;28;20060;-76
2023/04/08 11:35:55;;;;;;;7.05;4.60;;;;;;;11.38;66.34;100398.47;6253967;28;20049;-76
2023/04/08 11:38:56;;;;;;;2.95;2.22;;;;;;;11.28;64.65;100400.78;6271332;28;20056;-76
2023/04/08 11:41:59;;;;;;;5.00;3.28;;;;;;;10.37;69.50;100395.44;6271505;28;20055;-76
2023/04/08 11:45:00;;;;;;;4.63;3.13;;;;;;;9.85;70.98;100403.44;6252482;28;20056;-71
2023/04/08 11:48:08;;;;;;;4.60;2.17;;;;;;;9.54;74.49;100404.19;6270217;28;20481;-71
2023/04/08 11:51:11;;;;;;;4.10;2.58;;;;;;;9.55;75.68;100405.84;6252656;28;20053;-70
2023/04/08 11:54:31;;;;;;;2.75;1.92;;;;;;;9.77;76.34;100409.03;6270318;28;20493;-75
2023/04/08 11:57:32;;;;;;;2.90;1.55;;;;;;;9.37;74.78;100410.22;6270710;28;20049;-75
2023/04/08 12:00:33;;;;;;;1.88;1.60;;;;;;;9.47;72.90;100412.31;6271196;28;20053;-75
2023/04/08 12:03:34;;;;;;;1.70;1.50;;;;;;;9.78;73.33;100412.47;6253220;28;20408;-75
2023/04/08 12:06:35;;;;;;;3.92;1.80;;;;;;;9.60;74.38;100407.31;6253309;28;20537;-75
2023/04/08 12:09:35;;;;;;;3.00;2.20;;;;;;;10.15;72.07;100410.53;6253147;28;20060;-76
2023/04/08 12:12:37;;;;;;;2.50;1.75;;;;;;;10.24;68.09;100404.84;6252776;28;20098;-75
2023/04/08 12:15:38;;;;;;;2.45;1.63;;;;;;;10.61;70.82;100390.66;6252822;28;20049;-75
2023/04/08 12:18:41;;;;;;;2.58;1.50;;;;;;;10.61;69.52;100398.47;6252573;28;20106;-76
2023/04/08 12:21:42;;;;;;;2.50;1.83;;;;;;;10.20;69.88;100398.94;6270638;28;20063;-76
2023/04/08 12:24:43;;;;;;;2.30;1.90;;;;;;;10.22;69.20;100399.69;6252306;28;20049;-75
2023/04/08 12:27:46;;;;;;;2.00;1.40;;;;;;;10.01;65.75;100398.25;6270375;28;20045;-75
2023/04/08 12:30:49;;;;;;;1.92;1.60;;;;;;;9.85;68.42;100403.44;6252804;28;20488;-75
2023/04/08 12:33:50;;;;;;;2.67;2.03;;;;;;;9.86;68.43;100402.50;6269869;28;20064;-75
2023/04/08 12:36:50;;;;;;;4.35;1.92;;;;;;;9.94;69.69;100400.31;6252212;28;20416;-75
2023/04/08 12:39:54;;;;;;;2.80;1.92;;;;;;;9.96;70.38;100397.66;6269713;28;20045;-75
2023/04/08 12:42:55;;;;;;;3.03;2.10;;;;;;;9.85;68.65;100396.44;6251779;28;20053;-71
2023/04/08 12:45:55;;;;;;;4.05;1.98;;;;;;;10.18;67.19;100411.22;6268465;28;20057;-70
2023/04/08 12:48:57;;;;;;;2.55;2.10;;;;;;;10.51;65.90;100405.13;6251161;28;20131;-70
2023/04/08 12:51:58;;;;;;;2.42;1.80;;;;;;;10.79;64.70;100403.59;6251035;28;20063;-71
2023/04/08 12:54:58;;;;;;;2.75;1.77;;;;;;;10.95;65.14;100406.16;6268845;28;20049;-71
2023/04/08 12:57:59;;;;;;;2.45;1.98;;;;;;;10.83;66.99;100403.34;6268361;28;20136;-72
2023/04/08 13:01:01;;;;;;;2.85;2.28;;;;;;;10.41;66.44;100401.34;6251567;28;20045;-71
2023/04/08 13:04:02;;;;;;;2.60;1.90;;;;;;;10.51;65.28;100405.13;6268371;28;20136;-71
2023/04/08 13:07:06;;;;;;;2.60;1.75;;;;;;;10.34;65.65;100400.00;6268286;28;20098;-71
2023/04/08 13:10:10;;;;;;;3.42;2.05;;;;;;;10.27;66.81;100399.44;6250858;28;20079;-71
2023/04/08 13:13:13;;;;;;;3.25;1.77;;;;;;;9.98;64.19;100401.00;6268275;28;20404;-70
2023/04/08 13:16:16;;;;;;;2.20;1.70;;;;;;;10.02;67.06;100398.16;6250482;28;20041;-70
2023/04/08 13:19:17;;;;;;;2.75;2.03;;;;;;;9.80;67.58;100400.22;6250461;28;20436;-70
2023/04/08 13:22:20;;;;;;;2.67;2.13;;;;;;;9.38;66.90;100404.09;6250673;28;20052;-70
2023/04/08 13:25:21;;;;;;;4.05;2.55;;;;;;;9.41;69.61;100397.00;6268051;28;20084;-70
2023/04/08 13:28:22;;;;;;;6.55;4.20;;;;;;;9.12;70.53;100395.84;6268164;28;20053;-71
2023/04/08 13:31:25;;;;;;;5.82;3.20;;;;;;;8.99;71.23;100390.38;6250201;28;20061;-70
2023/04/08 13:34:26;;;;;;;3.00;2.20;;;;;;;8.92;71.47;100398.59;6267963;28;20345;-70
2023/04/08 13:37:27;;;;;;;3.42;2.40;;;;;;;8.93;74.02;100393.28;6267646;28;20141;-70
2023/04/08 13:40:28;;;;;;;6.18;2.72;;;;;;;8.80;73.70;100394.81;6268090;28;20064;-70
2023/04/08 13:43:32;;;;;;;3.50;2.57;;;;;;;8.71;75.17;100392.63;6250407;28;20090;-70
2023/04/08 13:46:32;;;;;;;4.35;2.60;;;;;;;8.46;77.81;100386.84;6267402;28;20057;-70
2023/04/08 13:49:35;;;;;;;6.05;3.28;;;;;;;8.43;77.06;100396.56;6250667;28;20053;-75
2023/04/08 13:52:38;;;;;;;3.92;2.55;;;;;;;8.41;75.64;100385.38;6249891;28;20056;-70
2023/04/08 13:55:39;;;;;;;3.00;2.33;;;;;;;8.37;74.90;100389.00;6267621;28;20508;-70
2023/04/08 13:58:40;;;;;;;4.83;3.37;;;;;;;8.53;76.45;100392.59;6267660;28;20077;-71
2023/04/08 14:01:41;;;;;;;3.88;2.50;;;;;;;8.49;78.00;100385.88;6249677;28;20382;-70
2023/04/08 14:04:44;;;;;;;5.72;3.03;;;;;;;8.49;75.67;100387.63;6249709;28;20052;-70
2023/04/08 14:07:45;;;;;;;3.70;2.67;;;;;;;8.31;74.29;100387.53;6249570;28;20052;-71
2023/04/08 14:10:46;;;;;;;3.50;2.63;;;;;;;8.45;75.36;100389.53;6249821;28;20049;-70